createdAt,value
2019-06-07T00:02:16.441Z,49.66
2019-06-07T00:04:48.991Z,49.63
2019-06-07T00:07:22.018Z,49.63
2019-06-07T00:09:54.424Z,49.69
2019-06-07T00:12:27.355Z,49.72
2019-06-07T00:15:00.199Z,49.75
2019-06-07T00:17:32.822Z,49.86
2019-06-07T00:20:05.901Z,49.88
2019-06-07T00:22:38.834Z,49.88
2019-06-07T00:25:15.089Z,49.86
2019-06-07T00:27:46.215Z,49.89
2019-06-07T00:30:37.622Z,49.97
2019-06-07T00:32:54.630Z,50.03
2019-06-07T00:35:27.063Z,50.10
2019-06-07T00:37:59.531Z,50.14
2019-06-07T00:40:32.478Z,50.17
2019-06-07T00:43:05.489Z,50.21
2019-06-07T00:45:37.933Z,50.28
2019-06-07T00:48:15.987Z,50.38
2019-06-07T00:50:44.695Z,50.46
2019-06-07T00:53:26.924Z,50.53
2019-06-07T00:55:51.325Z,50.54
2019-06-07T00:58:27.624Z,50.49
2019-06-07T01:00:57.909Z,50.46
2019-06-07T01:03:30.420Z,50.44
2019-06-07T01:06:02.791Z,50.41
2019-06-07T01:08:35.419Z,50.41
2019-06-07T01:11:07.777Z,50.39
2019-06-07T01:13:40.084Z,50.38
2019-06-07T01:16:13.786Z,50.36
2019-06-07T01:18:51.013Z,50.31
2019-06-07T01:21:23.685Z,50.28
2019-06-07T01:24:11.059Z,50.25
2019-06-07T01:26:30.430Z,50.22
2019-06-07T01:29:02.942Z,50.15
2019-06-07T01:31:35.396Z,50.14
2019-06-07T01:34:07.767Z,50.15
2019-06-07T01:36:40.310Z,50.17
2019-06-07T01:39:12.851Z,50.21
2019-06-07T01:41:45.321Z,50.17
2019-06-07T01:44:22.239Z,50.15
2019-06-07T01:46:52.080Z,50.13
2019-06-07T01:49:27.490Z,50.11
2019-06-07T01:51:58.771Z,50.13
2019-06-07T01:57:05.537Z,50.17
2019-06-07T01:59:38.287Z,50.19
2019-06-07T02:02:10.697Z,50.19
2019-06-07T02:04:43.081Z,50.21
2019-06-07T02:07:15.702Z,50.22
2019-06-07T02:09:48.188Z,50.21
2019-06-07T02:12:28.069Z,50.22
2019-06-07T02:14:56.842Z,50.27
2019-06-07T02:17:31.000Z,50.33
2019-06-07T02:20:03.911Z,50.34
2019-06-07T02:22:36.653Z,50.37
2019-06-07T02:27:43.822Z,50.33
2019-06-07T02:30:40.464Z,50.30
2019-06-07T02:32:51.588Z,50.31
2019-06-07T02:35:27.118Z,50.32
2019-06-07T02:37:59.081Z,50.35
2019-06-07T02:40:33.247Z,50.33
2019-06-07T02:43:05.820Z,50.35
2019-06-07T02:45:43.549Z,50.35
2019-06-07T02:48:12.445Z,50.40
2019-06-07T02:50:44.843Z,50.43
2019-06-07T02:53:17.321Z,50.45
2019-06-07T02:56:33.837Z,50.46
2019-06-07T02:58:26.005Z,50.44
2019-06-07T03:01:07.619Z,50.45
2019-06-07T03:03:33.708Z,50.45
2019-06-07T03:06:06.734Z,50.41
2019-06-07T03:08:42.410Z,50.39
2019-06-07T03:11:16.957Z,50.41
2019-06-07T03:13:51.113Z,50.38
2019-06-07T03:16:36.752Z,50.38
2019-06-07T03:19:26.393Z,50.39
2019-06-07T03:21:59.466Z,50.43
2019-06-07T03:24:37.990Z,50.47
2019-06-07T03:27:34.337Z,50.48
2019-06-07T03:29:43.977Z,50.53
2019-06-07T03:32:19.672Z,50.53
2019-06-07T03:34:52.007Z,50.57
2019-06-07T03:37:24.442Z,50.59
2019-06-07T03:39:57.136Z,50.60
2019-06-07T03:42:31.564Z,50.57
2019-06-07T03:45:03.943Z,50.60
2019-06-07T03:47:41.421Z,50.61
2019-06-07T03:50:10.978Z,50.60
2019-06-07T03:52:43.700Z,50.63
2019-06-07T03:55:16.570Z,50.67
2019-06-07T04:00:28.828Z,50.68
2019-06-07T04:03:00.275Z,50.69
2019-06-07T04:05:38.600Z,50.74
2019-06-07T04:08:09.468Z,50.79
2019-06-07T04:10:58.629Z,50.80
2019-06-07T04:13:16.142Z,50.83
2019-06-07T04:15:48.947Z,50.88
2019-06-07T04:18:21.423Z,50.99
2019-06-07T04:20:53.942Z,51.02
2019-06-07T04:23:30.034Z,51.02
2019-06-07T04:26:00.599Z,51.06
2019-06-07T04:29:26.106Z,51.07
2019-06-07T04:31:07.969Z,51.16
2019-06-07T04:33:43.552Z,51.13
2019-06-07T04:36:15.348Z,51.16
2019-06-07T04:38:49.359Z,51.22
2019-06-07T04:41:26.183Z,51.21
2019-06-07T04:44:01.245Z,51.19
2019-06-07T04:46:39.023Z,51.20
2019-06-07T04:49:09.026Z,51.20
2019-06-07T04:51:42.785Z,51.19
2019-06-07T04:54:15.237Z,51.19
2019-06-07T04:56:48.264Z,51.03
2019-06-07T05:00:00.769Z,50.90
2019-06-07T05:01:54.835Z,50.79
2019-06-07T05:04:28.974Z,50.80
2019-06-07T05:07:02.659Z,50.79
2019-06-07T05:09:38.942Z,50.83
2019-06-07T05:12:09.890Z,50.78
2019-06-07T05:14:44.184Z,50.68
2019-06-07T05:17:16.377Z,50.48
2019-06-07T05:19:48.933Z,50.19
2019-06-07T05:22:21.586Z,49.84
2019-06-07T05:24:53.855Z,49.46
2019-06-07T05:27:26.316Z,49.09
2019-06-07T05:30:13.202Z,48.91
2019-06-07T05:32:34.991Z,48.65
2019-06-07T05:35:08.962Z,48.16
2019-06-07T05:37:45.616Z,47.78
2019-06-07T05:40:18.660Z,47.64
2019-06-07T05:42:50.995Z,47.38
2019-06-07T05:45:35.043Z,47.20
2019-06-07T05:48:10.275Z,47.04
2019-06-07T05:50:55.774Z,46.59
2019-06-07T05:53:17.636Z,46.45
2019-06-07T05:55:50.493Z,46.36
2019-06-07T05:58:23.460Z,46.17
2019-06-07T06:00:56.380Z,45.97
2019-06-07T06:03:28.903Z,45.75
2019-06-07T06:06:01.286Z,45.63
2019-06-07T06:08:36.573Z,45.64
2019-06-07T06:11:08.871Z,45.55
2019-06-07T06:14:04.663Z,45.30
2019-06-07T06:16:15.288Z,45.02
2019-06-07T06:18:49.183Z,44.76
2019-06-07T06:21:21.836Z,44.39
2019-06-07T06:23:55.351Z,44.47
2019-06-07T06:26:27.951Z,44.51
2019-06-07T06:29:00.832Z,44.26
2019-06-07T06:31:33.446Z,44.19
2019-06-07T06:34:06.445Z,44.03
2019-06-07T06:36:39.919Z,43.93
2019-06-07T06:39:13.283Z,44.02
2019-06-07T06:41:57.609Z,44.21
2019-06-07T06:44:20.391Z,44.18
2019-06-07T06:46:58.146Z,44.22
2019-06-07T06:49:27.408Z,44.35
2019-06-07T06:51:59.912Z,44.42
2019-06-07T06:54:40.642Z,44.41
2019-06-07T06:57:19.281Z,44.40
2019-06-07T06:59:41.790Z,44.27
2019-06-07T07:02:14.877Z,44.08
2019-06-07T07:04:48.672Z,44.05
2019-06-07T07:07:22.146Z,44.04
2019-06-07T07:09:58.655Z,44.04
2019-06-07T07:12:29.124Z,44.13
2019-06-07T07:15:01.772Z,44.03
2019-06-07T07:17:50.679Z,44.14
2019-06-07T07:20:10.084Z,44.16
2019-06-07T07:22:46.414Z,44.06
2019-06-07T07:25:16.867Z,43.91
2019-06-07T07:27:52.167Z,44.12
2019-06-07T07:30:43.054Z,44.14
2019-06-07T07:33:16.759Z,44.18
2019-06-07T07:36:10.889Z,44.19
2019-06-07T07:38:25.677Z,44.15
2019-06-07T07:41:10.591Z,44.02
2019-06-07T07:43:32.759Z,44.08
2019-06-07T07:46:27.955Z,44.14
2019-06-07T07:48:40.209Z,44.22
2019-06-07T07:51:12.606Z,44.29
2019-06-07T07:53:53.168Z,44.36
2019-06-07T07:56:19.629Z,44.46
2019-06-07T07:58:57.943Z,44.47
2019-06-07T08:01:26.543Z,44.70
2019-06-07T08:03:59.032Z,44.86
2019-06-07T08:06:31.575Z,44.93
2019-06-07T08:09:04.322Z,44.76
2019-06-07T08:11:37.057Z,44.82
2019-06-07T08:14:09.458Z,44.83
2019-06-07T08:16:41.911Z,44.61
2019-06-07T08:19:14.389Z,44.42
2019-06-07T08:21:47.924Z,44.43
2019-06-07T08:24:21.011Z,44.24
2019-06-07T08:27:22.106Z,44.22
2019-06-07T08:29:43.791Z,44.19
2019-06-07T08:32:02.089Z,44.00
2019-06-07T08:34:34.516Z,43.95
2019-06-07T08:37:06.974Z,43.81
2019-06-07T08:39:52.801Z,43.75
2019-06-07T08:42:36.869Z,43.75
2019-06-07T08:45:03.714Z,43.87
2019-06-07T08:47:34.714Z,43.97
2019-06-07T08:50:10.509Z,43.98
2019-06-07T08:52:43.024Z,43.84
2019-06-07T08:55:16.153Z,43.76
2019-06-07T08:57:48.470Z,43.89
2019-06-07T09:02:58.165Z,43.99
2019-06-07T09:05:30.970Z,44.09
2019-06-07T09:08:25.944Z,44.21
2019-06-07T09:10:37.930Z,44.26
2019-06-07T09:13:11.877Z,44.30
2019-06-07T09:15:44.523Z,44.33
2019-06-07T09:18:40.917Z,44.35
2019-06-07T09:20:52.307Z,44.39
2019-06-07T09:23:25.262Z,44.35
2019-06-07T09:26:07.930Z,44.43
2019-06-07T09:28:33.076Z,44.51
2019-06-07T09:31:09.866Z,44.58
2019-06-07T09:33:40.072Z,44.62
2019-06-07T09:36:13.351Z,44.68
2019-06-07T09:38:46.761Z,44.71
2019-06-07T09:41:19.951Z,44.72
2019-06-07T09:44:05.385Z,44.78
2019-06-07T09:46:27.470Z,44.82
2019-06-07T09:49:14.699Z,44.84
2019-06-07T09:51:34.627Z,44.78
2019-06-07T09:54:10.806Z,44.76
2019-06-07T09:56:41.332Z,44.76
2019-06-07T09:59:13.780Z,44.83
2019-06-07T10:01:46.301Z,44.86
2019-06-07T10:04:30.910Z,44.81
2019-06-07T10:06:53.417Z,44.83
2019-06-07T10:10:08.640Z,44.84
2019-06-07T10:12:00.389Z,44.88
2019-06-07T10:14:33.310Z,44.92
2019-06-07T10:17:07.256Z,44.92
2019-06-07T10:19:39.972Z,44.93
2019-06-07T10:22:12.346Z,45.00
2019-06-07T10:24:44.943Z,45.03
2019-06-07T10:27:17.552Z,45.06
2019-06-07T10:29:49.922Z,45.00
2019-06-07T10:32:22.520Z,45.01
2019-06-07T10:34:54.959Z,44.99
2019-06-07T10:37:28.684Z,45.03
2019-06-07T10:40:01.123Z,44.99
2019-06-07T10:42:33.788Z,44.99
2019-06-07T10:45:08.243Z,45.08
2019-06-07T10:47:41.173Z,45.11
2019-06-07T10:50:14.414Z,45.09
2019-06-07T10:52:47.411Z,45.01
2019-06-07T10:55:20.124Z,45.02
2019-06-07T10:57:53.238Z,44.99
2019-06-07T11:00:26.150Z,45.02
2019-06-07T11:02:58.794Z,45.04
2019-06-07T11:05:31.153Z,45.08
2019-06-07T11:08:03.940Z,45.15
2019-06-07T11:10:36.828Z,45.12
2019-06-07T11:13:10.396Z,45.11
2019-06-07T11:15:42.902Z,45.24
2019-06-07T11:18:15.424Z,45.30
2019-06-07T11:20:48.276Z,45.31
2019-06-07T11:23:20.856Z,45.37
2019-06-07T11:25:53.460Z,45.38
2019-06-07T11:28:25.998Z,45.38
2019-06-07T11:30:58.496Z,45.40
2019-06-07T11:33:30.969Z,45.43
2019-06-07T11:36:03.684Z,45.42
2019-06-07T11:38:35.983Z,45.42
2019-06-07T11:41:09.354Z,45.40
2019-06-07T11:43:42.047Z,45.47
2019-06-07T11:46:15.117Z,45.51
2019-06-07T11:48:47.892Z,45.45
2019-06-07T11:51:20.266Z,45.48
2019-06-07T11:53:52.795Z,45.54
2019-06-07T11:56:25.262Z,45.58
2019-06-07T11:58:57.906Z,45.49
2019-06-07T12:01:30.541Z,45.50
2019-06-07T12:04:03.064Z,45.50
2019-06-07T12:06:35.867Z,45.55
2019-06-07T12:09:12.463Z,45.55
2019-06-07T12:11:45.216Z,45.58
2019-06-07T12:14:19.221Z,45.63
2019-06-07T12:16:51.840Z,45.67
2019-06-07T12:19:24.526Z,45.75
2019-06-07T12:21:58.244Z,45.80
2019-06-07T12:24:30.686Z,45.82
2019-06-07T12:27:03.724Z,45.92
2019-06-07T12:29:36.611Z,46.02
2019-06-07T12:32:09.207Z,46.07
2019-06-07T12:34:41.554Z,46.18
2019-06-07T12:37:17.770Z,46.21
2019-06-07T12:39:48.306Z,46.24
2019-06-07T12:42:25.812Z,46.36
2019-06-07T12:45:03.532Z,46.29
2019-06-07T12:47:37.844Z,46.27
2019-06-07T12:50:13.510Z,46.37
2019-06-07T12:52:46.285Z,46.45
2019-06-07T12:55:20.468Z,46.52
2019-06-07T12:57:53.655Z,46.60
2019-06-07T13:00:26.392Z,46.63
2019-06-07T13:02:58.779Z,46.67
2019-06-07T13:05:31.318Z,46.73
2019-06-07T13:08:05.189Z,46.90
2019-06-07T13:10:40.144Z,46.96
2019-06-07T13:13:13.074Z,47.05
2019-06-07T13:15:45.565Z,47.12
2019-06-07T13:18:19.793Z,47.27
2019-06-07T13:20:55.327Z,47.35
2019-06-07T13:23:26.304Z,47.36
2019-06-07T13:25:58.766Z,47.42
2019-06-07T13:28:31.716Z,47.48
2019-06-07T13:31:04.600Z,47.54
2019-06-07T13:33:38.755Z,47.53
2019-06-07T13:36:11.321Z,47.65
2019-06-07T13:38:43.693Z,47.73
2019-06-07T13:41:30.265Z,47.84
2019-06-07T13:43:51.690Z,47.86
2019-06-07T13:46:25.326Z,47.85
2019-06-07T13:48:57.840Z,47.84
2019-06-07T13:51:33.226Z,47.85
2019-06-07T13:54:08.139Z,47.83
2019-06-07T13:57:00.869Z,47.88
2019-06-07T13:59:14.626Z,47.89
2019-06-07T14:01:47.107Z,47.97
2019-06-07T14:04:20.910Z,48.09
2019-06-07T14:06:53.746Z,48.23
2019-06-07T14:09:27.484Z,48.40
2019-06-07T14:12:00.175Z,48.42
2019-06-07T14:14:32.516Z,48.58
2019-06-07T14:17:05.009Z,48.76
2019-06-07T14:19:37.647Z,48.79
2019-06-07T14:22:10.349Z,48.87
2019-06-07T14:24:42.836Z,48.96
2019-06-07T14:27:15.399Z,49.02
2019-06-07T14:29:47.815Z,48.97
2019-06-07T14:32:22.489Z,49.10
2019-06-07T14:34:55.207Z,49.09
2019-06-07T14:37:29.031Z,49.08
2019-06-07T14:40:01.398Z,49.18
2019-06-07T14:42:34.206Z,49.20
2019-06-07T14:45:08.213Z,49.38
2019-06-07T14:47:41.109Z,49.43
2019-06-07T14:50:16.670Z,49.55
2019-06-07T14:52:49.346Z,49.61
2019-06-07T14:55:22.047Z,49.83
2019-06-07T14:57:54.785Z,49.88
2019-06-07T15:00:41.519Z,49.85
2019-06-07T15:03:14.396Z,50.02
2019-06-07T15:05:46.825Z,50.24
2019-06-07T15:08:19.477Z,50.49
2019-06-07T15:10:51.890Z,50.60
2019-06-07T15:13:24.502Z,50.77
2019-06-07T15:15:57.787Z,50.85
2019-06-07T15:18:31.619Z,51.05
2019-06-07T15:21:04.365Z,51.01
2019-06-07T15:23:36.979Z,51.18
2019-06-07T15:26:09.876Z,51.29
2019-06-07T15:28:42.337Z,51.34
2019-06-07T15:31:14.875Z,51.37
2019-06-07T15:33:47.340Z,51.45
2019-06-07T15:36:19.844Z,51.48
2019-06-07T15:38:52.287Z,51.68
2019-06-07T15:41:24.683Z,51.70
2019-06-07T15:43:57.057Z,51.65
2019-06-07T15:46:29.514Z,51.69
2019-06-07T15:49:02.094Z,51.80
2019-06-07T15:51:34.890Z,52.10
2019-06-07T15:54:07.482Z,52.08
2019-06-07T15:56:41.308Z,52.17
2019-06-07T15:59:13.965Z,52.16
2019-06-07T16:01:46.546Z,52.14
2019-06-07T16:04:19.145Z,52.37
2019-06-07T16:06:52.082Z,52.44
2019-06-07T16:09:24.455Z,52.44
2019-06-07T16:11:57.427Z,52.72
2019-06-07T16:14:30.057Z,52.78
2019-06-07T16:17:03.278Z,52.82
2019-06-07T16:19:39.791Z,52.77
2019-06-07T16:22:09.745Z,52.70
2019-06-07T16:24:42.483Z,52.56
2019-06-07T16:27:14.990Z,52.65
2019-06-07T16:29:47.374Z,52.72
2019-06-07T16:32:20.344Z,52.65
2019-06-07T16:34:54.902Z,52.70
2019-06-07T16:37:27.436Z,52.65
2019-06-07T16:40:00.095Z,52.75
2019-06-07T16:42:34.522Z,52.81
2019-06-07T16:45:08.123Z,52.88
2019-06-07T16:47:42.804Z,52.90
2019-06-07T16:50:16.309Z,52.84
2019-06-07T16:52:48.862Z,53.02
2019-06-07T16:55:22.604Z,53.18
2019-06-07T16:57:55.068Z,53.09
2019-06-07T17:00:28.163Z,53.09
2019-06-07T17:03:00.534Z,53.19
2019-06-07T17:05:32.866Z,53.22
2019-06-07T17:08:05.489Z,53.19
2019-06-07T17:10:38.235Z,53.16
2019-06-07T17:13:11.049Z,53.11
2019-06-07T17:15:44.864Z,53.09
2019-06-07T17:18:17.594Z,53.09
2019-06-07T17:20:50.020Z,53.04
2019-06-07T17:23:22.580Z,53.05
2019-06-07T17:25:55.018Z,53.11
2019-06-07T17:28:28.077Z,53.07
2019-06-07T17:31:00.556Z,53.13
2019-06-07T17:33:33.055Z,53.08
2019-06-07T17:36:06.138Z,53.05
2019-06-07T17:38:40.410Z,53.09
2019-06-07T17:41:13.763Z,53.09
2019-06-07T17:46:41.588Z,53.07
2019-06-07T17:49:14.176Z,53.03
2019-06-07T17:51:48.036Z,53.12
2019-06-07T17:54:20.660Z,53.09
2019-06-07T17:56:53.459Z,53.13
2019-06-07T17:59:25.849Z,53.13
2019-06-07T18:02:15.572Z,53.13
2019-06-07T18:04:33.101Z,53.14
2019-06-07T18:07:05.869Z,53.17
2019-06-07T18:09:39.175Z,53.24
2019-06-07T18:12:12.208Z,53.28
2019-06-07T18:14:45.785Z,53.36
2019-06-07T18:17:33.508Z,53.29
2019-06-07T18:19:53.007Z,53.43
2019-06-07T18:22:25.458Z,53.44
2019-06-07T18:24:58.927Z,53.44
2019-06-07T18:27:31.575Z,53.38
2019-06-07T18:30:11.280Z,53.39
2019-06-07T18:32:38.238Z,53.47
2019-06-07T18:35:10.824Z,53.48
2019-06-07T18:37:47.080Z,53.53
2019-06-07T18:40:19.954Z,53.51
2019-06-07T18:42:53.278Z,53.47
2019-06-07T18:45:25.694Z,53.52
2019-06-07T18:47:58.256Z,53.52
2019-06-07T18:50:30.630Z,53.55
2019-06-07T18:53:03.251Z,53.47
2019-06-07T18:55:35.584Z,53.42
2019-06-07T18:58:09.011Z,53.38
2019-06-07T19:00:41.434Z,53.36
2019-06-07T19:03:13.899Z,53.33
2019-06-07T19:05:46.396Z,53.31
2019-06-07T19:08:19.008Z,53.31
2019-06-07T19:10:52.622Z,53.32
2019-06-07T19:13:25.486Z,53.31
2019-06-07T19:15:57.919Z,53.29
2019-06-07T19:18:30.729Z,53.31
2019-06-07T19:21:03.138Z,53.33
2019-06-07T19:23:35.460Z,53.36
2019-06-07T19:26:07.965Z,53.37
2019-06-07T19:28:40.478Z,53.33
2019-06-07T19:31:13.383Z,53.34
2019-06-07T19:33:49.034Z,53.36
2019-06-07T19:36:20.747Z,53.35
2019-06-07T19:38:53.862Z,53.33
2019-06-07T19:41:26.654Z,53.34
2019-06-07T19:44:00.302Z,53.34
2019-06-07T19:46:33.321Z,53.38
2019-06-07T19:49:06.071Z,53.40
2019-06-07T19:51:38.927Z,53.38
2019-06-07T19:54:11.472Z,53.38
2019-06-07T19:56:44.082Z,53.32
2019-06-07T19:59:16.426Z,53.33
2019-06-07T20:01:48.948Z,53.31
2019-06-07T20:04:21.336Z,53.30
2019-06-07T20:06:54.074Z,53.31
2019-06-07T20:09:26.815Z,53.31
2019-06-07T20:12:00.415Z,53.29
2019-06-07T20:14:33.247Z,53.30
2019-06-07T20:17:05.763Z,53.31
2019-06-07T20:19:38.274Z,53.32
2019-06-07T20:22:10.910Z,53.35
2019-06-07T20:24:43.642Z,53.34
2019-06-07T20:27:16.140Z,53.38
2019-06-07T20:29:48.581Z,53.37
2019-06-07T20:32:20.968Z,53.36
2019-06-07T20:34:53.596Z,53.39
2019-06-07T20:37:26.107Z,53.43
2019-06-07T20:40:02.634Z,53.48
2019-06-07T20:42:32.811Z,53.51
2019-06-07T20:45:05.945Z,53.52
2019-06-07T20:47:38.544Z,53.60
2019-06-07T20:50:11.463Z,53.65
2019-06-07T20:52:43.986Z,53.65
2019-06-07T20:55:16.879Z,53.67
2019-06-07T20:57:49.637Z,53.69
2019-06-07T21:00:22.701Z,53.68
2019-06-07T21:02:55.106Z,53.68
2019-06-07T21:05:27.738Z,53.65
2019-06-07T21:08:01.678Z,53.63
2019-06-07T21:10:34.658Z,53.63
2019-06-07T21:13:08.132Z,53.61
2019-06-07T21:15:48.995Z,53.60
2019-06-07T21:18:19.453Z,53.61
2019-06-07T21:20:49.050Z,53.62
2019-06-07T21:23:21.397Z,53.62
2019-06-07T21:25:54.081Z,53.59
2019-06-07T21:28:26.420Z,53.60
2019-06-07T21:30:59.462Z,53.58
2019-06-07T21:33:31.904Z,53.57
2019-06-07T21:36:05.748Z,53.55
2019-06-07T21:38:38.507Z,53.55
2019-06-07T21:41:12.455Z,53.55
2019-06-07T21:43:45.222Z,53.54
2019-06-07T21:46:20.434Z,53.57
2019-06-07T21:48:51.933Z,53.53
2019-06-07T21:51:24.364Z,53.56
2019-06-07T21:53:56.739Z,53.54
2019-06-07T21:56:29.691Z,53.53
2019-06-07T21:59:05.030Z,53.52
2019-06-07T22:01:39.181Z,53.54
2019-06-07T22:04:11.703Z,53.55
2019-06-07T22:06:44.312Z,53.59
2019-06-07T22:09:16.873Z,53.65
2019-06-07T22:11:49.370Z,53.66
2019-06-07T22:14:21.725Z,53.66
2019-06-07T22:16:54.225Z,53.65
2019-06-07T22:19:26.610Z,53.68
2019-06-07T22:22:02.711Z,53.68
2019-06-07T22:24:33.011Z,53.65
2019-06-07T22:27:05.412Z,53.65
2019-06-07T22:29:37.922Z,53.65
2019-06-07T22:32:10.944Z,53.63
2019-06-07T22:34:43.625Z,53.65
2019-06-07T22:37:18.130Z,53.67
2019-06-07T22:39:50.502Z,53.66
2019-06-07T22:42:22.832Z,53.67
2019-06-07T22:44:55.447Z,53.66
2019-06-07T22:47:28.173Z,53.67
2019-06-07T22:50:00.736Z,53.67
2019-06-07T22:52:33.196Z,53.64
2019-06-07T22:55:05.882Z,53.64
2019-06-07T22:57:58.350Z,53.64
2019-06-07T23:00:32.497Z,53.65
2019-06-07T23:03:04.911Z,53.69
2019-06-07T23:05:38.433Z,53.72
2019-06-07T23:08:11.040Z,53.75
2019-06-07T23:10:43.745Z,53.77
2019-06-07T23:13:17.713Z,53.80
2019-06-07T23:15:50.296Z,53.83
2019-06-07T23:18:22.784Z,53.87
2019-06-07T23:20:55.397Z,53.85
2019-06-07T23:23:27.845Z,53.87
2019-06-07T23:26:00.344Z,53.85
2019-06-07T23:28:32.766Z,53.81
2019-06-07T23:31:06.077Z,53.76
2019-06-07T23:33:39.021Z,53.71
2019-06-07T23:36:12.825Z,53.64
2019-06-07T23:38:45.763Z,53.63
2019-06-07T23:41:18.511Z,53.63
2019-06-07T23:43:52.224Z,53.64
2019-06-07T23:46:24.611Z,53.68
2019-06-07T23:48:56.911Z,53.70
2019-06-07T23:51:29.510Z,53.75
2019-06-07T23:54:01.904Z,53.75
2019-06-07T23:56:34.794Z,53.74
2019-06-07T23:59:07.168Z,53.75
